< < Back
Terminal Aerodrome Forecast


Current Version              Previous Versions:   1  2  3  4  5  6  7  8  9  

Terminal Aerodrome Forecast

519
FTUS42 KTAE 022321
TAFABY
TAF
KABY 022321Z 0300/0324 25008KT P6SM FEW006 SCT100
     FM031200 25008KT P6SM SCT030 BKN100
     FM031800 26012G18KT P6SM VCTS BKN040CB=

Latest METAR

419
SAUS70 KWBC 032300
MTRABY
METAR KABY 032253Z 23005KT 10SM CLR 32/23 A3002 RMK AO2 SLP165
T03170228


USA.gov is the U.S. government's official web portal to all federal, state and local government web resources and services.